Time;durP1;ratioP1;P1;durP2;ratioP2;P2;SDS_P1;SDS_P2;PMS_P1;PMS_P2;Temp;Humidity;BMP_temperature;BMP_pressure;BME280_temperature;BME280_humidity;BME280_pressure;Samples;Min_cycle;Max_cycle;Signal;HPM_P1;HPM_P2
2022/07/13 00:00:06;;;;;;;20.48;18.30;;;;;;;;;;5019501;28;20050;-75
2022/07/13 00:02:32;;;;;;;20.60;18.45;;;;;;;;;;5019835;28;20073;-75
2022/07/13 00:04:58;;;;;;;21.38;19.10;;;;;;;;;;5002194;28;20045;-74
2022/07/13 00:07:24;;;;;;;21.45;19.17;;;;;;;;;;4999758;28;20057;-75
2022/07/13 00:09:50;;;;;;;20.73;18.52;;;;;;;;;;5016463;28;20071;-74
2022/07/13 00:12:16;;;;;;;21.25;19.05;;;;;;;;;;4998963;28;20041;-75
2022/07/13 00:14:42;;;;;;;22.42;19.77;;;;;;;;;;5016049;28;20237;-75
2022/07/13 00:17:09;;;;;;;22.95;19.50;;;;;;;;;;4999185;28;20058;-75
2022/07/13 00:19:35;;;;;;;20.88;18.73;;;;;;;;;;4998915;28;20049;-75
2022/07/13 00:22:01;;;;;;;23.58;19.58;;;;;;;;;;5016381;28;20521;-75
2022/07/13 00:24:27;;;;;;;20.52;18.38;;;;;;;;;;5016313;28;20129;-74
2022/07/13 00:26:53;;;;;;;19.65;17.48;;;;;;;;;;5016103;28;20076;-75
2022/07/13 00:29:19;;;;;;;18.55;16.67;;;;;;;;;;5016022;28;20086;-75
2022/07/13 00:31:46;;;;;;;20.10;18.00;;;;;;;;;;5016119;28;20045;-75
2022/07/13 00:34:13;;;;;;;18.73;16.73;;;;;;;;;;5016158;28;20126;-75
2022/07/13 00:36:39;;;;;;;22.30;17.10;;;;;;;;;;4998207;28;20054;-74
2022/07/13 00:39:05;;;;;;;19.20;17.30;;;;;;;;;;5015904;28;20046;-75
2022/07/13 00:41:31;;;;;;;19.48;17.15;;;;;;;;;;4998271;28;20121;-74
2022/07/13 00:44:09;;;;;;;19.13;17.13;;;;;;;;;;5015493;28;20042;-75
2022/07/13 00:46:36;;;;;;;17.75;15.85;;;;;;;;;;5032822;23;20159;-77
2022/07/13 00:49:03;;;;;;;18.88;16.33;;;;;;;;;;5019922;28;20049;-76
2022/07/13 00:51:29;;;;;;;18.45;16.27;;;;;;;;;;5019681;28;20489;-77
2022/07/13 00:53:55;;;;;;;17.88;15.60;;;;;;;;;;5019508;28;20045;-77
2022/07/13 00:56:22;;;;;;;19.70;17.05;;;;;;;;;;5020103;28;20140;-78
2022/07/13 00:58:48;;;;;;;18.13;16.33;;;;;;;;;;5019999;28;20125;-76
2022/07/13 01:01:14;;;;;;;18.13;16.33;;;;;;;;;;5020322;28;20152;-77
2022/07/13 01:03:40;;;;;;;17.67;15.80;;;;;;;;;;5020570;28;20042;-77
2022/07/13 01:06:08;;;;;;;17.52;15.73;;;;;;;;;;5020025;28;20050;-77
2022/07/13 01:08:35;;;;;;;16.85;15.05;;;;;;;;;;5019824;28;20141;-77
2022/07/13 01:11:01;;;;;;;17.05;15.27;;;;;;;;;;5019605;28;20061;-77
2022/07/13 01:13:27;;;;;;;18.50;15.98;;;;;;;;;;5020421;28;20044;-77
2022/07/13 01:15:54;;;;;;;18.90;15.70;;;;;;;;;;5001934;28;20045;-77
2022/07/13 01:18:20;;;;;;;18.05;16.13;;;;;;;;;;5020472;28;20413;-77
2022/07/13 01:20:46;;;;;;;17.85;16.08;;;;;;;;;;5021797;28;20061;-76
2022/07/13 01:23:17;;;;;;;17.33;15.52;;;;;;;;;;5021232;28;20046;-77
2022/07/13 01:25:43;;;;;;;17.33;15.63;;;;;;;;;;5019642;28;20446;-77
2022/07/13 01:28:09;;;;;;;17.73;15.75;;;;;;;;;;5020216;28;20504;-76
2022/07/13 01:30:35;;;;;;;18.10;16.20;;;;;;;;;;5020337;28;20460;-78
2022/07/13 01:33:01;;;;;;;18.20;16.30;;;;;;;;;;5019958;28;20046;-77
2022/07/13 01:35:27;;;;;;;16.58;14.88;;;;;;;;;;5019820;28;20045;-77
2022/07/13 01:37:54;;;;;;;17.20;15.48;;;;;;;;;;5019758;28;20049;-77
2022/07/13 01:40:20;;;;;;;19.50;15.45;;;;;;;;;;5019648;28;20061;-78
2022/07/13 01:42:50;;;;;;;17.30;15.45;;;;;;;;;;5019920;28;20405;-77
2022/07/13 01:45:18;;;;;;;18.10;16.23;;;;;;;;;;5019884;28;20042;-77
2022/07/13 01:47:48;;;;;;;19.15;15.63;;;;;;;;;;5019572;28;20053;-77
2022/07/13 01:50:16;;;;;;;18.13;16.23;;;;;;;;;;5019258;28;20144;-76
2022/07/13 01:52:42;;;;;;;18.90;16.90;;;;;;;;;;5018951;28;20052;-78
2022/07/13 01:55:09;;;;;;;17.85;16.05;;;;;;;;;;5018891;28;20396;-78
2022/07/13 01:57:35;;;;;;;18.23;15.95;;;;;;;;;;5019478;28;20066;-78
2022/07/13 02:00:21;;;;;;;18.15;16.25;;;;;;;;;;5020028;28;20046;-78
2022/07/13 02:02:48;;;;;;;17.63;15.73;;;;;;;;;;5019618;28;20355;-78
2022/07/13 02:05:14;;;;;;;19.02;16.95;;;;;;;;;;5019083;28;20046;-77
2022/07/13 02:07:41;;;;;;;19.42;17.33;;;;;;;;;;5020068;28;20074;-78
2022/07/13 02:10:09;;;;;;;18.65;16.58;;;;;;;;;;5019191;28;20457;-76
2022/07/13 02:12:35;;;;;;;20.30;18.20;;;;;;;;;;5018846;28;20511;-78
2022/07/13 02:15:01;;;;;;;20.35;17.27;;;;;;;;;;5019079;28;20041;-78
2022/07/13 02:17:27;;;;;;;20.35;18.15;;;;;;;;;;5019283;28;20042;-77
2022/07/13 02:19:53;;;;;;;20.10;16.45;;;;;;;;;;5019273;28;20046;-78
2022/07/13 02:22:19;;;;;;;20.48;17.55;;;;;;;;;;5018326;28;20046;-78
2022/07/13 02:24:45;;;;;;;20.17;17.30;;;;;;;;;;5019227;28;20042;-78
2022/07/13 02:27:11;;;;;;;18.55;16.65;;;;;;;;;;5019814;28;20133;-78
2022/07/13 02:29:37;;;;;;;20.27;17.38;;;;;;;;;;5019802;28;20088;-78
2022/07/13 02:32:05;;;;;;;18.35;16.38;;;;;;;;;;5018742;28;20436;-78
2022/07/13 02:34:31;;;;;;;17.77;15.88;;;;;;;;;;5019934;28;20049;-77
2022/07/13 02:36:58;;;;;;;18.25;16.15;;;;;;;;;;5019727;28;20120;-78
2022/07/13 02:39:25;;;;;;;17.88;16.10;;;;;;;;;;5019872;28;20060;-77
2022/07/13 02:41:51;;;;;;;17.05;15.25;;;;;;;;;;5001346;28;20377;-76
2022/07/13 02:44:17;;;;;;;17.98;16.08;;;;;;;;;;5019404;28;20111;-78
2022/07/13 02:46:43;;;;;;;17.83;15.93;;;;;;;;;;5001345;28;20133;-77
2022/07/13 02:49:10;;;;;;;16.20;14.50;;;;;;;;;;5018840;28;20065;-77
2022/07/13 02:51:37;;;;;;;18.08;14.75;;;;;;;;;;5020955;28;20050;-77
2022/07/13 02:54:03;;;;;;;16.17;14.50;;;;;;;;;;5018779;28;20124;-78
2022/07/13 02:56:29;;;;;;;15.57;13.98;;;;;;;;;;5018933;28;20129;-76
2022/07/13 02:58:55;;;;;;;15.18;13.68;;;;;;;;;;5019241;28;20072;-78
2022/07/13 03:01:21;;;;;;;14.68;13.10;;;;;;;;;;5018946;28;20119;-79
2022/07/13 03:03:47;;;;;;;16.25;13.70;;;;;;;;;;5019085;28;20042;-78
2022/07/13 03:06:13;;;;;;;15.48;13.20;;;;;;;;;;5018595;28;20050;-78
2022/07/13 03:08:39;;;;;;;13.77;12.32;;;;;;;;;;5020053;28;20046;-78
2022/07/13 03:11:06;;;;;;;15.27;13.15;;;;;;;;;;5018967;28;20100;-78
2022/07/13 03:13:32;;;;;;;13.32;11.93;;;;;;;;;;5017797;28;20128;-77
2022/07/13 03:15:58;;;;;;;13.88;11.88;;;;;;;;;;5018645;28;20080;-76
2022/07/13 03:18:24;;;;;;;15.20;12.40;;;;;;;;;;5018440;28;20057;-77
2022/07/13 03:20:50;;;;;;;13.73;12.13;;;;;;;;;;5018957;28;20042;-77
2022/07/13 03:23:16;;;;;;;14.40;12.63;;;;;;;;;;5019287;28;20045;-76
2022/07/13 03:25:42;;;;;;;14.07;12.57;;;;;;;;;;5019138;28;20053;-77
2022/07/13 03:28:08;;;;;;;13.35;12.05;;;;;;;;;;5018630;28;20049;-77
2022/07/13 03:30:34;;;;;;;13.63;12.10;;;;;;;;;;5018078;28;20054;-77
2022/07/13 03:33:00;;;;;;;12.23;10.95;;;;;;;;;;5018692;28;20041;-77
2022/07/13 03:35:26;;;;;;;14.82;12.52;;;;;;;;;;5017634;28;20046;-77
2022/07/13 03:37:52;;;;;;;13.80;11.88;;;;;;;;;;5018214;28;20053;-78
2022/07/13 03:40:18;;;;;;;13.30;11.45;;;;;;;;;;5018390;28;20100;-78
2022/07/13 03:42:44;;;;;;;12.88;10.77;;;;;;;;;;5018295;28;20056;-78
2022/07/13 03:45:10;;;;;;;13.52;11.25;;;;;;;;;;5020882;28;20049;-78
2022/07/13 03:47:36;;;;;;;14.60;11.43;;;;;;;;;;5020160;28;20058;-78
2022/07/13 03:50:02;;;;;;;12.73;11.40;;;;;;;;;;5021244;28;20077;-76
2022/07/13 03:52:28;;;;;;;11.77;10.57;;;;;;;;;;5020924;28;20137;-76
2022/07/13 03:54:54;;;;;;;13.38;11.15;;;;;;;;;;5021428;28;20041;-77
2022/07/13 03:57:20;;;;;;;12.65;10.65;;;;;;;;;;5021363;28;20512;-76
2022/07/13 03:59:46;;;;;;;12.65;10.27;;;;;;;;;;5021475;28;20042;-77
2022/07/13 04:02:12;;;;;;;12.13;10.25;;;;;;;;;;5021911;28;20054;-77
2022/07/13 04:04:39;;;;;;;12.43;10.30;;;;;;;;;;5021574;28;20050;-77
2022/07/13 04:07:05;;;;;;;12.15;10.70;;;;;;;;;;5022153;28;20056;-77
2022/07/13 04:09:31;;;;;;;11.90;10.70;;;;;;;;;;5003757;28;20121;-78
2022/07/13 04:11:57;;;;;;;13.05;10.35;;;;;;;;;;5020745;28;20151;-77
2022/07/13 04:14:23;;;;;;;12.20;10.88;;;;;;;;;;5021690;28;20473;-77
2022/07/13 04:16:49;;;;;;;13.43;10.68;;;;;;;;;;5021807;28;20050;-77
2022/07/13 04:19:15;;;;;;;13.98;10.85;;;;;;;;;;5021641;28;20088;-77
2022/07/13 04:21:41;;;;;;;12.63;10.70;;;;;;;;;;5022971;28;20056;-77
2022/07/13 04:24:07;;;;;;;11.52;10.30;;;;;;;;;;5021773;28;20121;-78
2022/07/13 04:26:36;;;;;;;13.32;11.20;;;;;;;;;;5020712;28;20042;-77
2022/07/13 04:29:02;;;;;;;12.07;10.68;;;;;;;;;;5003561;28;20077;-77
2022/07/13 04:31:28;;;;;;;11.95;10.63;;;;;;;;;;5021469;28;20046;-77
2022/07/13 04:33:54;;;;;;;13.63;10.45;;;;;;;;;;5020119;28;20049;-77
2022/07/13 04:36:20;;;;;;;11.93;10.70;;;;;;;;;;5019971;28;20048;-76
2022/07/13 04:38:46;;;;;;;11.45;10.18;;;;;;;;;;5019369;28;20056;-78
2022/07/13 04:41:12;;;;;;;12.27;10.98;;;;;;;;;;5002486;28;20120;-78
2022/07/13 04:43:45;;;;;;;12.70;10.55;;;;;;;;;;5019790;28;20077;-78
2022/07/13 04:46:11;;;;;;;10.75;9.25;;;;;;;;;;5019408;28;20061;-78
2022/07/13 04:48:37;;;;;;;12.02;8.85;;;;;;;;;;5019403;28;20088;-77
2022/07/13 04:51:03;;;;;;;10.40;8.85;;;;;;;;;;5001565;28;20049;-78
2022/07/13 04:53:30;;;;;;;9.93;8.65;;;;;;;;;;5018787;28;20042;-78
2022/07/13 04:55:56;;;;;;;15.25;8.20;;;;;;;;;;5019256;28;20049;-76
2022/07/13 04:58:22;;;;;;;10.63;8.60;;;;;;;;;;5019449;28;20050;-77
2022/07/13 05:00:48;;;;;;;8.15;7.15;;;;;;;;;;5019020;28;20509;-77
2022/07/13 05:03:14;;;;;;;10.32;8.10;;;;;;;;;;5018806;28;20050;-77
2022/07/13 05:05:40;;;;;;;9.57;8.40;;;;;;;;;;5018943;28;20188;-77
2022/07/13 05:08:06;;;;;;;10.90;8.52;;;;;;;;;;5018461;28;20570;-77
2022/07/13 05:10:33;;;;;;;11.02;7.65;;;;;;;;;;5000810;28;20560;-78
2022/07/13 05:12:59;;;;;;;10.38;7.93;;;;;;;;;;5019294;28;20493;-78
2022/07/13 05:15:25;;;;;;;9.07;8.07;;;;;;;;;;5019009;28;20042;-78
2022/07/13 05:17:51;;;;;;;11.32;8.77;;;;;;;;;;5018770;28;20050;-78
2022/07/13 05:20:17;;;;;;;11.27;8.43;;;;;;;;;;5001130;28;20092;-78
2022/07/13 05:22:43;;;;;;;11.70;8.98;;;;;;;;;;5018480;28;20042;-79
2022/07/13 05:25:09;;;;;;;12.73;9.13;;;;;;;;;;5018847;28;20042;-78
2022/07/13 05:27:35;;;;;;;12.18;9.07;;;;;;;;;;5018502;28;20046;-77
2022/07/13 05:30:03;;;;;;;15.20;10.50;;;;;;;;;;5018225;28;20054;-78
2022/07/13 05:32:29;;;;;;;12.02;9.65;;;;;;;;;;5018924;28;20049;-77
2022/07/13 05:34:55;;;;;;;13.82;10.60;;;;;;;;;;5018368;28;20062;-78
2022/07/13 05:37:22;;;;;;;12.38;10.68;;;;;;;;;;5017761;28;20517;-76
2022/07/13 05:39:48;;;;;;;16.80;11.85;;;;;;;;;;5018455;28;20045;-76
2022/07/13 05:42:14;;;;;;;14.45;12.15;;;;;;;;;;5018016;28;20050;-77
2022/07/13 05:44:40;;;;;;;13.45;11.27;;;;;;;;;;5018405;28;20049;-76
2022/07/13 05:47:06;;;;;;;16.48;12.10;;;;;;;;;;5018408;28;20485;-77
2022/07/13 05:49:32;;;;;;;15.50;12.27;;;;;;;;;;5018184;28;20054;-77
2022/07/13 05:51:59;;;;;;;16.58;13.40;;;;;;;;;;5020676;28;20097;-78
2022/07/13 05:54:25;;;;;;;15.82;13.35;;;;;;;;;;5017809;28;20053;-78
2022/07/13 05:56:51;;;;;;;17.83;13.60;;;;;;;;;;5018450;28;20052;-77
2022/07/13 05:59:17;;;;;;;16.55;13.98;;;;;;;;;;5018022;28;20042;-77
2022/07/13 06:01:43;;;;;;;17.08;14.55;;;;;;;;;;5018180;28;20042;-77
2022/07/13 06:04:09;;;;;;;18.60;15.07;;;;;;;;;;5018077;28;20121;-77
2022/07/13 06:06:35;;;;;;;18.33;14.63;;;;;;;;;;5017431;28;20100;-78
2022/07/13 06:09:03;;;;;;;18.67;15.93;;;;;;;;;;4984453;28;20107;-79
2022/07/13 06:11:29;;;;;;;18.80;15.98;;;;;;;;;;5017657;28;20499;-77
2022/07/13 06:13:55;;;;;;;20.70;16.17;;;;;;;;;;5017786;28;20405;-78
2022/07/13 06:16:21;;;;;;;20.77;17.70;;;;;;;;;;5017542;28;20520;-78
2022/07/13 06:18:48;;;;;;;20.83;17.35;;;;;;;;;;5017815;28;20053;-76
2022/07/13 06:21:14;;;;;;;20.23;17.00;;;;;;;;;;4999397;28;20457;-78
2022/07/13 06:23:40;;;;;;;19.95;16.65;;;;;;;;;;5015409;28;20085;-78
2022/07/13 06:26:11;;;;;;;20.17;15.77;;;;;;;;;;5015060;28;20125;-78
2022/07/13 06:28:40;;;;;;;21.10;16.42;;;;;;;;;;5015320;28;20375;-78
2022/07/13 06:31:06;;;;;;;21.42;18.20;;;;;;;;;;5015030;28;20155;-77
2022/07/13 06:33:32;;;;;;;19.13;16.67;;;;;;;;;;5015117;28;20489;-78
2022/07/13 06:35:58;;;;;;;19.23;16.88;;;;;;;;;;5014725;28;20125;-78
2022/07/13 06:38:24;;;;;;;25.25;18.80;;;;;;;;;;5014924;28;20046;-78
2022/07/13 06:40:50;;;;;;;19.98;17.85;;;;;;;;;;5014700;28;20056;-78
2022/07/13 06:43:16;;;;;;;23.92;19.25;;;;;;;;;;5014566;28;20508;-78
2022/07/13 06:45:42;;;;;;;22.10;19.27;;;;;;;;;;5014694;28;20101;-78
2022/07/13 06:48:08;;;;;;;19.80;16.30;;;;;;;;;;5015096;28;20120;-77
2022/07/13 06:50:34;;;;;;;18.85;16.60;;;;;;;;;;5014537;28;20085;-77
2022/07/13 06:53:01;;;;;;;20.88;17.40;;;;;;;;;;5014771;28;20080;-78
2022/07/13 06:55:28;;;;;;;20.10;16.58;;;;;;;;;;5015032;28;20056;-77
2022/07/13 06:57:55;;;;;;;19.42;16.20;;;;;;;;;;5015121;28;20103;-78
2022/07/13 07:00:21;;;;;;;19.83;17.73;;;;;;;;;;5014255;28;20490;-77
2022/07/13 07:02:47;;;;;;;19.52;15.45;;;;;;;;;;5014556;28;20042;-79
2022/07/13 07:05:13;;;;;;;18.45;15.32;;;;;;;;;;5014434;28;20049;-77
2022/07/13 07:07:40;;;;;;;21.00;17.17;;;;;;;;;;5014859;28;20042;-77
2022/07/13 07:10:06;;;;;;;21.42;18.73;;;;;;;;;;5014927;28;20042;-77
2022/07/13 07:12:32;;;;;;;19.65;16.65;;;;;;;;;;5014539;28;20181;-78
2022/07/13 07:14:58;;;;;;;19.60;16.88;;;;;;;;;;5014397;28;20038;-78
2022/07/13 07:17:24;;;;;;;15.85;13.43;;;;;;;;;;5016194;28;20053;-78
2022/07/13 07:19:51;;;;;;;16.23;14.55;;;;;;;;;;5000982;28;20042;-79
2022/07/13 07:22:17;;;;;;;16.33;13.02;;;;;;;;;;5019070;28;20041;-79
2022/07/13 07:24:43;;;;;;;15.80;14.05;;;;;;;;;;5018039;28;20100;-79
2022/07/13 07:27:10;;;;;;;17.60;15.80;;;;;;;;;;5018134;28;20050;-79
2022/07/13 07:29:37;;;;;;;18.10;14.57;;;;;;;;;;5017924;28;20093;-79
2022/07/13 07:32:03;;;;;;;15.77;13.85;;;;;;;;;;5017683;28;20049;-78
2022/07/13 07:34:29;;;;;;;14.35;11.32;;;;;;;;;;5017580;28;20038;-79
2022/07/13 07:36:55;;;;;;;16.05;14.35;;;;;;;;;;5000394;28;20042;-78
2022/07/13 07:39:22;;;;;;;16.13;12.77;;;;;;;;;;5017507;28;20046;-78
2022/07/13 07:41:49;;;;;;;14.57;12.10;;;;;;;;;;5017975;28;20104;-77
2022/07/13 07:44:15;;;;;;;15.77;12.48;;;;;;;;;;5017430;28;20061;-77
2022/07/13 07:46:41;;;;;;;13.40;11.02;;;;;;;;;;5017472;28;20077;-77
2022/07/13 07:49:07;;;;;;;13.88;11.88;;;;;;;;;;5017167;28;20404;-77
2022/07/13 07:51:33;;;;;;;14.52;11.13;;;;;;;;;;5017132;28;20509;-78
2022/07/13 07:53:59;;;;;;;12.30;10.82;;;;;;;;;;5017403;28;20046;-78
2022/07/13 07:56:25;;;;;;;12.65;10.95;;;;;;;;;;5017436;28;20041;-77
2022/07/13 07:58:51;;;;;;;13.25;9.93;;;;;;;;;;5017094;28;20417;-78
2022/07/13 08:01:18;;;;;;;11.52;9.30;;;;;;;;;;5017093;28;20046;-78
2022/07/13 08:03:44;;;;;;;12.05;9.85;;;;;;;;;;5016896;28;20105;-79
2022/07/13 08:06:11;;;;;;;11.40;9.10;;;;;;;;;;5017189;28;20084;-79
2022/07/13 08:08:40;;;;;;;13.68;10.48;;;;;;;;;;5017059;28;20176;-79
2022/07/13 08:11:07;;;;;;;12.70;9.65;;;;;;;;;;5016841;28;20038;-79
2022/07/13 08:13:33;;;;;;;12.48;10.32;;;;;;;;;;5016882;28;20045;-79
2022/07/13 08:16:12;;;;;;;10.18;9.18;;;;;;;;;;5016981;28;20048;-79
2022/07/13 08:18:38;;;;;;;14.10;9.90;;;;;;;;;;5017076;28;20448;-79
2022/07/13 08:21:17;;;;;;;11.07;8.88;;;;;;;;;;5017006;28;20057;-79
2022/07/13 08:23:53;;;;;;;11.05;9.23;;;;;;;;;;5016783;28;20102;-79
2022/07/13 08:26:25;;;;;;;9.32;7.80;;;;;;;;;;5016992;28;20054;-78
2022/07/13 08:28:54;;;;;;;10.32;8.40;;;;;;;;;;5015947;28;20053;-79
2022/07/13 08:31:23;;;;;;;9.70;8.30;;;;;;;;;;5016303;28;20420;-79
2022/07/13 08:39:20;;;;;;;11.23;10.13;;;;;;;;;;4998966;28;20054;-79
2022/07/13 08:41:47;;;;;;;12.07;10.13;;;;;;;;;;5016313;28;20076;-79
2022/07/13 08:44:13;;;;;;;10.75;9.50;;;;;;;;;;5017791;28;20038;-80
2022/07/13 08:46:40;;;;;;;12.25;10.23;;;;;;;;;;5017563;28;20056;-78
2022/07/13 08:49:06;;;;;;;11.10;8.85;;;;;;;;;;5017670;28;20053;-78
2022/07/13 08:51:33;;;;;;;11.30;8.88;;;;;;;;;;5018352;28;20046;-78
2022/07/13 08:53:59;;;;;;;11.38;7.28;;;;;;;;;;5017631;28;20046;-78
2022/07/13 08:56:26;;;;;;;8.40;6.85;;;;;;;;;;4999644;28;20073;-79
2022/07/13 08:58:52;;;;;;;11.57;8.48;;;;;;;;;;5016919;28;20498;-79
2022/07/13 09:01:19;;;;;;;12.25;8.43;;;;;;;;;;5017511;28;20127;-78
2022/07/13 09:03:45;;;;;;;10.68;8.77;;;;;;;;;;5017509;28;20149;-78
2022/07/13 09:06:31;;;;;;;9.73;7.85;;;;;;;;;;5016416;28;20041;-78
2022/07/13 09:08:57;;;;;;;;;;;;;;;;;;4999766;28;20489;-77
2022/07/13 09:11:23;;;;;;;;;;;;;;;;;;4999287;28;19983;-78
2022/07/13 09:13:49;;;;;;;8.27;6.75;;;;;;;;;;5016343;28;19928;-78
2022/07/13 09:16:19;;;;;;;7.90;6.10;;;;;;;;;;5016345;28;20054;-78
2022/07/13 09:18:49;;;;;;;6.60;5.53;;;;;;;;;;5016434;28;20520;-78
2022/07/13 09:21:16;;;;;;;7.90;6.40;;;;;;;;;;5016502;28;20124;-78
2022/07/13 09:23:42;;;;;;;5.43;4.90;;;;;;;;;;5016530;28;20038;-79
2022/07/13 09:26:08;;;;;;;7.72;6.03;;;;;;;;;;5016330;28;20096;-78
2022/07/13 09:28:47;;;;;;;5.82;5.20;;;;;;;;;;5016105;28;20489;-78
2022/07/13 09:31:13;;;;;;;8.10;6.85;;;;;;;;;;5016407;28;20064;-78
2022/07/13 09:33:40;;;;;;;9.15;6.97;;;;;;;;;;5015887;28;20112;-78
2022/07/13 09:36:16;;;;;;;7.88;6.32;;;;;;;;;;5016437;28;20046;-79
2022/07/13 09:38:44;;;;;;;6.90;6.03;;;;;;;;;;5016489;28;20131;-79
2022/07/13 09:41:16;;;;;;;5.82;5.20;;;;;;;;;;5016722;28;20052;-78
2022/07/13 09:46:50;;;;;;;7.65;6.00;;;;;;;;;;5015791;28;20062;-79
2022/07/13 09:49:20;;;;;;;7.85;5.68;;;;;;;;;;5016049;28;20038;-79
2022/07/13 09:51:46;;;;;;;8.20;5.47;;;;;;;;;;5015170;28;20038;-79
2022/07/13 09:54:13;;;;;;;5.75;5.15;;;;;;;;;;4997617;28;20057;-78
2022/07/13 09:56:51;;;;;;;7.13;5.32;;;;;;;;;;5015231;28;20121;-76
2022/07/13 09:59:17;;;;;;;6.90;4.95;;;;;;;;;;5015165;28;20144;-78
2022/07/13 10:01:45;;;;;;;5.88;4.93;;;;;;;;;;5014657;28;20053;-78
2022/07/13 10:04:11;;;;;;;5.53;4.93;;;;;;;;;;5014841;28;20053;-78
2022/07/13 10:06:37;;;;;;;6.20;4.50;;;;;;;;;;5014224;28;20053;-78
2022/07/13 10:09:04;;;;;;;5.22;3.90;;;;;;;;;;4996965;28;20121;-79
2022/07/13 10:11:30;;;;;;;6.22;4.00;;;;;;;;;;5014455;28;20084;-78
2022/07/13 10:13:57;;;;;;;6.05;4.03;;;;;;;;;;5014671;28;20045;-78
2022/07/13 10:16:23;;;;;;;5.30;3.72;;;;;;;;;;5014451;28;20042;-78
2022/07/13 10:18:49;;;;;;;5.55;3.95;;;;;;;;;;5014319;28;20037;-78
2022/07/13 10:21:18;;;;;;;5.28;3.90;;;;;;;;;;5014191;28;20064;-78
2022/07/13 10:23:50;;;;;;;4.78;3.85;;;;;;;;;;5014403;28;20038;-78
2022/07/13 10:26:19;;;;;;;6.53;5.25;;;;;;;;;;5014042;28;20046;-77
2022/07/13 10:29:04;;;;;;;5.75;4.40;;;;;;;;;;5014080;28;20100;-78
2022/07/13 10:31:33;;;;;;;8.93;4.97;;;;;;;;;;4996588;28;20378;-78
2022/07/13 10:33:59;;;;;;;5.05;4.55;;;;;;;;;;5014038;28;20042;-78
2022/07/13 10:36:44;;;;;;;5.95;4.88;;;;;;;;;;5014083;28;20050;-78
2022/07/13 10:39:11;;;;;;;6.57;5.05;;;;;;;;;;5013819;28;20408;-79
2022/07/13 10:41:55;;;;;;;6.65;5.35;;;;;;;;;;5013970;28;20060;-78
2022/07/13 10:44:30;;;;;;;8.13;5.78;;;;;;;;;;4996290;28;20038;-77
2022/07/13 10:46:56;;;;;;;6.82;5.85;;;;;;;;;;5013818;28;20053;-78
2022/07/13 10:49:29;;;;;;;6.90;5.93;;;;;;;;;;5013942;28;20057;-77
2022/07/13 10:51:57;;;;;;;7.57;5.95;;;;;;;;;;4995316;28;20073;-78
2022/07/13 10:54:23;;;;;;;6.15;5.38;;;;;;;;;;5013782;28;20142;-78
2022/07/13 10:57:08;;;;;;;7.40;6.15;;;;;;;;;;5013929;28;20038;-78
2022/07/13 10:59:49;;;;;;;6.85;6.03;;;;;;;;;;5013381;28;20398;-79
2022/07/13 11:02:34;;;;;;;8.18;5.75;;;;;;;;;;5013860;28;20046;-78
2022/07/13 11:05:01;;;;;;;6.07;5.47;;;;;;;;;;5013448;28;20381;-79
2022/07/13 11:07:39;;;;;;;7.57;6.40;;;;;;;;;;5014060;28;20050;-78
2022/07/13 11:10:24;;;;;;;7.18;6.45;;;;;;;;;;5013800;28;20053;-78
2022/07/13 11:13:04;;;;;;;8.07;6.05;;;;;;;;;;5013957;28;20050;-78
2022/07/13 11:15:46;;;;;;;7.13;5.30;;;;;;;;;;5013858;28;20448;-78
2022/07/13 11:18:24;;;;;;;7.00;5.35;;;;;;;;;;5013471;28;20044;-78
2022/07/13 11:21:00;;;;;;;5.95;5.30;;;;;;;;;;4995889;28;20386;-78
2022/07/13 11:26:29;;;;;;;8.38;5.80;;;;;;;;;;5013618;28;20128;-78
2022/07/13 11:29:10;;;;;;;8.20;6.15;;;;;;;;;;5013523;28;20086;-78
2022/07/13 11:31:37;;;;;;;5.95;5.15;;;;;;;;;;5013671;28;20128;-79
2022/07/13 11:34:03;;;;;;;7.65;5.43;;;;;;;;;;4995857;28;20081;-77
2022/07/13 11:36:29;;;;;;;9.88;6.20;;;;;;;;;;5013309;28;20397;-79
2022/07/13 11:38:55;;;;;;;8.90;5.75;;;;;;;;;;5013464;28;20053;-78
2022/07/13 11:41:23;;;;;;;7.13;5.50;;;;;;;;;;5013616;28;20078;-78
2022/07/13 11:43:49;;;;;;;10.10;6.03;;;;;;;;;;5013325;28;20058;-78
2022/07/13 11:46:22;;;;;;;9.57;6.28;;;;;;;;;;4995467;28;20054;-79
2022/07/13 11:48:49;;;;;;;8.63;5.18;;;;;;;;;;5013677;28;20049;-78
2022/07/13 11:51:15;;;;;;;7.97;5.05;;;;;;;;;;5013200;28;20440;-78
2022/07/13 11:53:41;;;;;;;7.90;5.40;;;;;;;;;;5013462;28;20497;-79
2022/07/13 11:56:08;;;;;;;6.68;4.93;;;;;;;;;;5013420;28;20104;-78
2022/07/13 11:58:38;;;;;;;9.20;4.93;;;;;;;;;;4979320;28;20091;-79
2022/07/13 12:01:12;;;;;;;10.32;5.38;;;;;;;;;;4995246;28;20046;-78
2022/07/13 12:03:38;;;;;;;8.48;5.65;;;;;;;;;;5013298;28;20512;-77
2022/07/13 12:06:05;;;;;;;7.78;5.00;;;;;;;;;;5016912;28;20118;-77
2022/07/13 12:08:33;;;;;;;6.40;5.00;;;;;;;;;;5016693;28;20064;-77
2022/07/13 12:10:59;;;;;;;7.22;4.93;;;;;;;;;;5016552;28;20041;-78
2022/07/13 12:13:25;;;;;;;8.93;5.30;;;;;;;;;;4998793;28;20620;-78
2022/07/13 12:15:52;;;;;;;7.47;4.13;;;;;;;;;;5016326;28;20493;-78
2022/07/13 12:18:18;;;;;;;5.88;4.22;;;;;;;;;;5016465;28;20049;-79
2022/07/13 12:20:44;;;;;;;5.30;4.30;;;;;;;;;;4998545;28;20417;-79
2022/07/13 12:23:10;;;;;;;7.30;4.40;;;;;;;;;;5016500;28;20042;-79
2022/07/13 12:25:39;;;;;;;7.43;4.45;;;;;;;;;;5016581;28;20046;-79
2022/07/13 12:28:06;;;;;;;6.50;4.30;;;;;;;;;;5016078;28;20057;-80
2022/07/13 12:30:33;;;;;;;6.88;4.10;;;;;;;;;;5016451;28;20048;-79
2022/07/13 12:33:03;;;;;;;8.93;4.30;;;;;;;;;;4998472;28;20054;-78
2022/07/13 12:35:32;;;;;;;11.00;4.70;;;;;;;;;;5016173;28;20046;-79
2022/07/13 12:37:58;;;;;;;10.18;4.55;;;;;;;;;;4998632;28;20053;-79
2022/07/13 12:40:37;;;;;;;8.25;3.50;;;;;;;;;;5016294;28;20172;-79
2022/07/13 12:43:03;;;;;;;5.90;3.15;;;;;;;;;;5016252;28;20054;-79
2022/07/13 12:45:32;;;;;;;5.35;3.40;;;;;;;;;;5015422;28;20429;-78
2022/07/13 12:47:59;;;;;;;7.25;3.92;;;;;;;;;;5015584;28;20050;-76
2022/07/13 12:50:29;;;;;;;6.22;3.08;;;;;;;;;;5015644;28;20100;-78
2022/07/13 12:52:59;;;;;;;6.13;2.75;;;;;;;;;;5015707;28;20060;-78
2022/07/13 12:55:25;;;;;;;8.82;3.20;;;;;;;;;;5015362;28;20112;-77
2022/07/13 12:57:51;;;;;;;8.57;3.15;;;;;;;;;;5015819;28;20053;-78
2022/07/13 13:00:25;;;;;;;10.52;3.47;;;;;;;;;;5015715;28;20042;-78
2022/07/13 13:02:51;;;;;;;6.88;3.30;;;;;;;;;;5015454;28;20049;-78
2022/07/13 13:05:17;;;;;;;6.70;3.35;;;;;;;;;;5015391;28;20050;-78
2022/07/13 13:07:44;;;;;;;8.23;2.85;;;;;;;;;;5015136;28;20041;-78
2022/07/13 13:10:10;;;;;;;8.07;3.30;;;;;;;;;;5015377;28;20498;-78
2022/07/13 13:12:37;;;;;;;5.82;2.70;;;;;;;;;;5015375;28;20045;-78
2022/07/13 13:15:03;;;;;;;6.95;3.10;;;;;;;;;;5014848;28;20045;-78
2022/07/13 13:17:30;;;;;;;8.00;3.20;;;;;;;;;;5015293;28;20042;-77
2022/07/13 13:19:56;;;;;;;7.22;2.88;;;;;;;;;;5014844;28;20108;-78
2022/07/13 13:22:22;;;;;;;8.57;3.13;;;;;;;;;;5014874;28;20045;-78
2022/07/13 13:24:48;;;;;;;7.18;3.45;;;;;;;;;;5014985;28;20053;-78
2022/07/13 13:27:14;;;;;;;9.52;3.58;;;;;;;;;;5015181;28;20112;-78
2022/07/13 13:32:25;;;;;;;8.18;2.90;;;;;;;;;;5014674;28;20501;-78
2022/07/13 13:34:51;;;;;;;11.20;3.30;;;;;;;;;;5014510;28;20045;-77
2022/07/13 13:37:17;;;;;;;11.40;3.55;;;;;;;;;;5014851;28;20482;-79
2022/07/13 13:39:44;;;;;;;13.05;3.20;;;;;;;;;;5014832;28;20049;-79
2022/07/13 13:42:10;;;;;;;10.43;3.88;;;;;;;;;;5014684;28;20568;-79
2022/07/13 13:44:36;;;;;;;9.15;2.90;;;;;;;;;;5014506;28;20072;-79
2022/07/13 13:47:02;;;;;;;12.27;3.67;;;;;;;;;;4996915;28;20057;-79
2022/07/13 13:49:28;;;;;;;12.85;4.00;;;;;;;;;;5014736;28;20402;-79
2022/07/13 13:51:54;;;;;;;12.25;3.40;;;;;;;;;;5014167;28;20437;-79
2022/07/13 13:54:20;;;;;;;16.98;4.00;;;;;;;;;;5017607;28;20501;-78
2022/07/13 13:56:46;;;;;;;15.73;3.80;;;;;;;;;;5018989;28;20050;-86
2022/07/13 13:59:12;;;;;;;11.32;3.40;;;;;;;;;;5015116;28;20144;-80
2022/07/13 14:01:39;;;;;;;10.63;3.65;;;;;;;;;;5015313;28;20149;-81
2022/07/13 14:04:05;;;;;;;11.80;3.50;;;;;;;;;;5014246;28;20120;-80
2022/07/13 14:06:31;;;;;;;13.18;3.95;;;;;;;;;;4980845;28;20481;-80
2022/07/13 14:08:57;;;;;;;16.33;4.22;;;;;;;;;;5014147;28;20501;-80
2022/07/13 14:11:23;;;;;;;16.85;4.20;;;;;;;;;;5013915;28;20037;-80
2022/07/13 14:13:49;;;;;;;11.23;3.70;;;;;;;;;;5013898;28;20393;-80
2022/07/13 14:16:15;;;;;;;12.38;3.92;;;;;;;;;;5014189;28;20517;-80
2022/07/13 14:18:41;;;;;;;14.90;4.15;;;;;;;;;;5014154;28;20046;-80
2022/07/13 14:21:07;;;;;;;14.27;3.75;;;;;;;;;;4996640;28;20046;-81
2022/07/13 14:23:34;;;;;;;16.65;5.40;;;;;;;;;;5014519;28;20049;-80
2022/07/13 14:26:00;;;;;;;11.68;4.03;;;;;;;;;;5013900;28;20092;-80
2022/07/13 14:28:27;;;;;;;13.57;4.28;;;;;;;;;;5013650;28;20128;-80
2022/07/13 14:30:53;;;;;;;14.48;4.20;;;;;;;;;;5014247;28;20042;-80
2022/07/13 14:33:19;;;;;;;12.48;3.90;;;;;;;;;;5013718;28;20052;-80
2022/07/13 14:35:45;;;;;;;13.48;4.05;;;;;;;;;;5014198;28;20061;-80
2022/07/13 14:38:12;;;;;;;15.95;4.57;;;;;;;;;;5013841;28;20125;-80
2022/07/13 14:40:42;;;;;;;13.18;4.07;;;;;;;;;;5014013;28;20532;-79
2022/07/13 14:43:09;;;;;;;12.05;4.30;;;;;;;;;;5013617;28;20053;-79